Time;durP1;ratioP1;P1;durP2;ratioP2;P2;SDS_P1;SDS_P2;PMS_P1;PMS_P2;Temp;Humidity;BMP_temperature;BMP_pressure;BME280_temperature;BME280_humidity;BME280_pressure;Samples;Min_cycle;Max_cycle;Signal;HPM_P1;HPM_P2
2022/05/20 00:02:25;;;;;;;14.00;8.10;;;18.90;99.90;;;;;;4991086;28;20428;-57
2022/05/20 00:04:50;;;;;;;14.73;9.00;;;18.70;99.90;;;;;;4990802;28;20423;-57
2022/05/20 00:07:16;;;;;;;11.97;8.10;;;18.70;99.90;;;;;;4989640;28;20406;-57
2022/05/20 00:09:42;;;;;;;11.32;8.02;;;18.80;99.90;;;;;;4990645;28;20426;-57
2022/05/20 00:12:08;;;;;;;15.48;8.98;;;18.90;99.90;;;;;;4990151;28;20402;-56
2022/05/20 00:14:34;;;;;;;14.48;8.65;;;18.80;99.90;;;;;;4990892;28;20406;-56
2022/05/20 00:17:04;;;;;;;12.00;8.10;;;18.80;99.90;;;;;;4990152;28;20414;-57
2022/05/20 00:19:29;;;;;;;13.48;8.70;;;18.90;99.90;;;;;;4990670;28;20456;-57
2022/05/20 00:21:55;;;;;;;15.73;8.88;;;18.90;99.90;;;;;;4990415;28;20879;-53
2022/05/20 00:24:20;;;;;;;12.00;8.83;;;18.80;99.90;;;;;;4989775;28;20418;-57
2022/05/20 00:26:47;;;;;;;13.80;8.90;;;18.60;99.90;;;;;;4990746;28;20461;-57
2022/05/20 00:29:12;;;;;;;13.10;8.90;;;18.60;99.90;;;;;;4989657;28;20468;-57
2022/05/20 00:31:38;;;;;;;11.73;8.18;;;18.60;99.90;;;;;;4990221;28;20919;-57
2022/05/20 00:34:04;;;;;;;12.30;8.90;;;18.60;99.90;;;;;;4989266;28;20386;-57
2022/05/20 00:36:30;;;;;;;13.93;8.60;;;18.60;99.90;;;;;;4989946;28;20460;-57
2022/05/20 00:38:56;;;;;;;14.07;9.10;;;18.60;99.90;;;;;;4989585;28;20398;-53
2022/05/20 00:41:21;;;;;;;13.80;9.40;;;18.60;99.90;;;;;;4990021;28;20447;-57
2022/05/20 00:43:49;;;;;;;13.67;9.53;;;18.60;99.90;;;;;;4990199;28;20406;-57
2022/05/20 00:46:21;;;;;;;13.18;8.80;;;18.50;99.90;;;;;;4989416;28;20405;-57
2022/05/20 00:48:55;;;;;;;15.10;9.32;;;18.50;99.90;;;;;;4989897;28;20416;-57
2022/05/20 00:51:26;;;;;;;13.98;9.30;;;18.50;99.90;;;;;;4990136;28;20477;-57
2022/05/20 00:53:57;;;;;;;14.63;9.48;;;18.40;99.90;;;;;;4990244;28;20375;-57
2022/05/20 00:56:34;;;;;;;13.95;8.70;;;18.40;99.90;;;;;;4989163;28;20554;-57
2022/05/20 00:59:00;;;;;;;14.65;9.20;;;18.50;99.90;;;;;;4989367;28;20406;-57
2022/05/20 01:01:28;;;;;;;14.45;9.23;;;18.40;99.90;;;;;;4989900;28;20409;-57
2022/05/20 01:03:55;;;;;;;13.97;8.80;;;18.40;99.90;;;;;;4989854;28;20430;-56
2022/05/20 01:06:21;;;;;;;14.30;9.50;;;18.30;99.90;;;;;;4989537;28;20401;-57
2022/05/20 01:08:47;;;;;;;14.73;9.23;;;18.30;99.90;;;;;;4989838;28;20403;-57
2022/05/20 01:11:13;;;;;;;14.00;8.50;;;18.30;99.90;;;;;;4970846;28;20771;-57
2022/05/20 01:13:39;;;;;;;11.23;8.02;;;18.30;99.90;;;;;;4970586;28;20483;-57
2022/05/20 01:16:11;;;;;;;14.95;9.18;;;18.30;99.90;;;;;;4969635;28;20412;-57
2022/05/20 01:18:39;;;;;;;14.02;8.82;;;18.30;99.90;;;;;;4969603;28;20759;-57
2022/05/20 01:21:05;;;;;;;15.40;9.60;;;18.50;99.90;;;;;;4969765;28;20401;-57
2022/05/20 01:23:33;;;;;;;14.13;8.70;;;18.50;99.90;;;;;;4970067;28;20406;-57
2022/05/20 01:25:58;;;;;;;14.15;9.77;;;18.50;99.90;;;;;;4969667;28;20396;-53
2022/05/20 01:28:27;;;;;;;14.70;9.93;;;18.40;99.90;;;;;;4970377;28;20484;-57
2022/05/20 01:31:14;;;;;;;15.40;9.40;;;18.20;99.90;;;;;;4970413;28;20404;-56
2022/05/20 01:33:43;;;;;;;16.77;9.63;;;18.30;99.90;;;;;;4969907;28;20483;-57
2022/05/20 01:36:12;;;;;;;14.20;9.90;;;18.30;99.90;;;;;;4969525;28;20654;-57
2022/05/20 01:38:38;;;;;;;14.85;9.75;;;18.30;99.90;;;;;;4970434;28;20418;-56
2022/05/20 01:41:12;;;;;;;13.30;9.10;;;18.30;99.90;;;;;;4969224;28;20408;-57
2022/05/20 01:44:09;;;;;;;14.60;10.00;;;18.30;99.90;;;;;;4969833;28;20440;-57
2022/05/20 01:46:43;;;;;;;13.75;9.55;;;18.30;99.90;;;;;;4964045;28;20408;-57
2022/05/20 01:49:21;;;;;;;15.65;10.32;;;18.30;99.90;;;;;;4957944;28;20960;-57
2022/05/20 01:52:00;;;;;;;16.17;10.40;;;18.40;99.90;;;;;;4974265;28;20861;-57
2022/05/20 01:55:03;;;;;;;14.38;9.95;;;18.40;99.90;;;;;;4973902;28;20890;-57
2022/05/20 01:57:49;;;;;;;15.00;10.97;;;18.30;99.90;;;;;;4973769;28;20503;-57
2022/05/20 02:00:19;;;;;;;16.90;11.32;;;18.20;99.90;;;;;;4973099;28;20407;-57
2022/05/20 02:03:03;;;;;;;13.88;9.90;;;18.20;99.90;;;;;;4973559;28;20473;-57
2022/05/20 02:05:39;;;;;;;15.15;10.20;;;18.10;99.90;;;;;;4973836;28;20400;-56
2022/05/20 02:08:13;;;;;;;15.13;10.10;;;18.10;99.90;;;;;;4972897;28;20728;-56
2022/05/20 02:10:51;;;;;;;15.43;10.30;;;18.20;99.90;;;;;;4986404;28;20415;-57
2022/05/20 02:13:18;;;;;;;16.25;10.68;;;18.20;99.90;;;;;;4982473;28;20396;-57
2022/05/20 02:15:50;;;;;;;16.90;10.80;;;18.20;99.90;;;;;;4974707;28;20972;-57
2022/05/20 02:18:22;;;;;;;16.87;10.93;;;18.10;99.90;;;;;;4988140;28;20407;-57
2022/05/20 02:20:53;;;;;;;16.23;10.50;;;18.00;99.90;;;;;;4973524;28;20467;-57
2022/05/20 02:23:23;;;;;;;16.37;10.80;;;18.00;99.90;;;;;;4988629;28;20391;-57
2022/05/20 02:25:53;;;;;;;15.25;11.02;;;18.00;99.90;;;;;;4993043;28;20394;-57
2022/05/20 02:28:37;;;;;;;17.50;11.70;;;18.00;99.90;;;;;;4973988;28;20419;-56
2022/05/20 02:31:07;;;;;;;17.33;12.00;;;18.00;99.90;;;;;;4973332;28;20769;-57
2022/05/20 02:33:33;;;;;;;16.75;10.90;;;18.00;99.90;;;;;;4987836;28;20939;-56
2022/05/20 02:36:16;;;;;;;16.50;11.23;;;17.90;99.90;;;;;;4973972;28;20400;-54
2022/05/20 02:38:42;;;;;;;18.13;11.15;;;17.80;99.90;;;;;;4983556;28;20841;-57
2022/05/20 02:41:08;;;;;;;15.53;11.03;;;17.80;99.90;;;;;;4991944;28;20467;-57
2022/05/20 02:43:34;;;;;;;20.15;12.05;;;17.80;99.90;;;;;;4985608;28;20475;-57
2022/05/20 02:46:01;;;;;;;22.63;12.40;;;17.70;99.90;;;;;;4983551;28;20788;-54
2022/05/20 02:48:27;;;;;;;16.07;11.00;;;17.70;99.90;;;;;;4977486;28;20409;-58
2022/05/20 02:50:53;;;;;;;18.38;12.13;;;17.70;99.90;;;;;;4990529;28;20499;-57
2022/05/20 02:53:19;;;;;;;17.02;11.98;;;17.80;99.90;;;;;;4977254;28;20403;-58
2022/05/20 02:55:45;;;;;;;17.60;12.00;;;17.80;99.90;;;;;;4988102;28;20409;-57
2022/05/20 03:04:09;;;;;;;17.02;11.50;;;17.80;99.90;;;;;;4981179;28;20784;-57
2022/05/20 03:06:25;;;;;;;17.97;12.50;;;17.90;99.90;;;;;;4983073;28;20409;-57
2022/05/20 03:08:52;;;;;;;17.17;12.20;;;17.90;99.90;;;;;;4975617;28;20408;-56
2022/05/20 03:11:17;;;;;;;15.57;11.13;;;17.90;99.90;;;;;;4989472;28;20449;-57
2022/05/20 03:13:43;;;;;;;17.60;11.20;;;17.80;99.90;;;;;;4991790;28;20426;-57
2022/05/20 03:16:09;;;;;;;20.40;12.00;;;17.90;99.90;;;;;;4990915;28;20422;-57
2022/05/20 03:18:35;;;;;;;18.73;12.07;;;17.90;99.90;;;;;;4992156;28;20406;-56
2022/05/20 03:21:01;;;;;;;16.67;11.97;;;17.80;99.90;;;;;;4991342;28;20399;-53
2022/05/20 03:23:27;;;;;;;18.38;11.63;;;17.80;99.90;;;;;;4991421;28;20872;-56
2022/05/20 03:25:53;;;;;;;18.60;11.57;;;17.80;99.90;;;;;;4991796;28;20382;-57
2022/05/20 03:28:19;;;;;;;16.38;11.65;;;17.90;99.90;;;;;;4990694;28;20428;-57
2022/05/20 03:30:44;;;;;;;16.98;11.07;;;17.90;99.90;;;;;;4991600;28;20860;-56
2022/05/20 03:33:10;;;;;;;17.60;11.90;;;18.00;99.90;;;;;;4990715;28;20386;-56
2022/05/20 03:35:35;;;;;;;18.30;11.80;;;17.90;99.90;;;;;;4991368;28;20398;-56
2022/05/20 03:38:01;;;;;;;18.80;11.32;;;18.00;99.90;;;;;;4990178;28;20510;-54
2022/05/20 03:40:27;;;;;;;17.23;12.00;;;18.00;99.90;;;;;;4991462;28;20407;-56
2022/05/20 03:42:53;;;;;;;16.10;10.80;;;18.00;99.90;;;;;;4991241;28;20755;-56
2022/05/20 03:45:18;;;;;;;15.23;11.05;;;18.00;99.90;;;;;;5000281;28;20392;-57
2022/05/20 03:47:44;;;;;;;18.27;11.40;;;17.90;99.90;;;;;;4991558;28;20405;-56
2022/05/20 03:50:10;;;;;;;16.60;11.30;;;17.90;99.90;;;;;;4990504;28;20937;-56
2022/05/20 03:52:36;;;;;;;20.02;11.48;;;17.90;99.90;;;;;;4991147;28;20769;-56
2022/05/20 03:55:02;;;;;;;18.37;11.00;;;17.90;99.90;;;;;;4990044;28;20395;-53
2022/05/20 03:57:28;;;;;;;17.35;11.57;;;18.00;99.90;;;;;;4973288;28;20823;-56
2022/05/20 03:59:54;;;;;;;17.15;11.30;;;18.00;99.90;;;;;;4991058;28;20480;-56
2022/05/20 04:02:19;;;;;;;17.73;11.70;;;18.00;99.90;;;;;;4987341;28;20481;-56
2022/05/20 04:04:48;;;;;;;17.10;11.53;;;18.10;99.90;;;;;;5010340;28;20377;-56
2022/05/20 04:07:17;;;;;;;15.75;10.45;;;18.10;99.90;;;;;;5005526;28;20999;-56
2022/05/20 04:09:43;;;;;;;17.70;11.15;;;18.20;99.90;;;;;;4990152;28;20887;-65
2022/05/20 04:12:19;;;;;;;15.63;11.00;;;18.30;99.90;;;;;;4990170;28;20410;-65
2022/05/20 04:14:45;;;;;;;18.70;11.95;;;18.30;99.90;;;;;;4990840;28;20399;-65
2022/05/20 04:17:10;;;;;;;16.50;10.70;;;18.40;99.90;;;;;;4989090;28;20421;-65
2022/05/20 04:19:36;;;;;;;14.00;10.80;;;18.40;99.90;;;;;;4990819;28;20796;-65
2022/05/20 04:22:05;;;;;;;17.37;11.17;;;18.40;99.90;;;;;;4989536;28;20486;-59
2022/05/20 04:24:31;;;;;;;16.05;11.13;;;18.30;99.90;;;;;;4990794;28;20522;-58
2022/05/20 04:26:56;;;;;;;17.30;11.30;;;18.30;99.90;;;;;;4990367;28;20410;-62
2022/05/20 04:29:22;;;;;;;17.25;11.20;;;18.20;99.90;;;;;;4989054;28;20403;-66
2022/05/20 04:31:49;;;;;;;16.33;11.50;;;18.20;99.90;;;;;;4990499;28;20494;-65
2022/05/20 04:34:17;;;;;;;13.95;10.18;;;18.30;99.90;;;;;;4989690;28;20411;-65
2022/05/20 04:36:43;;;;;;;17.40;10.90;;;18.30;99.90;;;;;;4990303;28;20425;-66
2022/05/20 04:39:08;;;;;;;14.40;10.57;;;18.20;99.90;;;;;;4990099;28;20408;-65
2022/05/20 04:47:04;;;;;;;18.15;11.70;;;18.30;99.90;;;;;;4991065;28;20405;-54
2022/05/20 04:49:32;;;;;;;18.60;11.15;;;18.40;99.90;;;;;;4990076;28;20390;-56
2022/05/20 04:52:00;;;;;;;14.20;9.60;;;18.50;99.90;;;;;;4990375;28;20391;-56
2022/05/20 04:57:18;;;;;;;16.23;10.30;;;18.80;99.90;;;;;;5007335;28;20419;-64
2022/05/20 04:59:45;;;;;;;14.50;9.50;;;19.20;99.90;;;;;;4991051;28;20421;-58
2022/05/20 05:02:11;;;;;;;15.37;9.90;;;19.60;15.90;;;;;;4988579;28;20425;-64
2022/05/20 05:04:37;;;;;;;14.40;9.38;;;19.90;1.00;;;;;;4985098;28;20390;-65
2022/05/20 05:07:03;;;;;;;15.30;9.60;;;20.30;1.00;;;;;;4988147;28;20454;-59
2022/05/20 05:09:29;;;;;;;14.13;8.90;;;20.90;1.00;;;;;;4989589;28;20410;-66
2022/05/20 05:11:54;;;;;;;13.77;9.60;;;21.50;99.90;;;;;;4989982;28;20409;-67
2022/05/20 05:14:20;;;;;;;16.07;8.87;;;21.90;1.00;;;;;;4996444;28;20870;-68
2022/05/20 05:16:46;;;;;;;14.17;8.77;;;22.20;75.90;;;;;;5009750;28;20826;-68
2022/05/20 05:19:12;;;;;;;15.43;8.77;;;22.60;1.00;;;;;;4994343;28;20458;-64
2022/05/20 05:21:38;;;;;;;11.82;8.70;;;23.20;11.40;;;;;;4993656;28;20394;-66
2022/05/20 05:24:05;;;;;;;15.35;9.55;;;23.60;1.00;;;;;;4991611;28;20910;-61
2022/05/20 05:26:32;;;;;;;13.35;8.73;;;24.10;91.10;;;;;;4991578;28;20419;-55
2022/05/20 05:29:00;;;;;;;14.65;9.40;;;24.40;1.00;;;;;;4990065;28;20410;-56
2022/05/20 05:31:26;;;;;;;14.93;8.90;;;24.70;99.90;;;;;;4992749;28;20406;-57
2022/05/20 05:33:53;;;;;;;13.10;8.70;;;24.90;99.90;;;;;;4992879;28;20402;-56
2022/05/20 05:36:19;;;;;;;13.93;9.17;;;25.50;99.90;;;;;;4992893;28;20453;-57
2022/05/20 05:38:46;;;;;;;14.77;8.88;;;25.80;1.00;;;;;;4993214;28;20417;-56
2022/05/20 05:41:12;;;;;;;13.25;8.38;;;25.80;1.00;;;;;;4985073;28;20405;-56
2022/05/20 05:43:39;;;;;;;15.32;9.00;;;26.30;1.00;;;;;;4989544;28;20418;-58
2022/05/20 05:46:05;;;;;;;15.98;8.30;;;27.00;1.00;;;;;;4991090;28;20390;-56
2022/05/20 05:48:31;;;;;;;12.75;7.95;;;27.80;1.00;;;;;;4992466;28;20403;-56
2022/05/20 05:50:57;;;;;;;16.90;8.85;;;28.10;1.00;;;;;;4992967;28;20425;-57
2022/05/20 05:53:25;;;;;;;15.05;8.85;;;28.20;1.00;;;;;;5000156;28;20420;-57
2022/05/20 05:55:59;;;;;;;14.50;9.23;;;28.40;1.00;;;;;;5012869;28;20393;-59
2022/05/20 05:58:26;;;;;;;15.10;9.30;;;29.20;1.00;;;;;;4996174;28;20438;-56
2022/05/20 06:00:54;;;;;;;15.57;9.95;;;29.80;99.90;;;;;;4992734;28;20394;-57
2022/05/20 06:03:20;;;;;;;12.98;9.98;;;30.00;99.90;;;;;;4989261;28;20470;-57
2022/05/20 06:05:47;;;;;;;15.05;9.40;;;29.90;99.90;;;;;;4989785;28;20408;-57
2022/05/20 06:08:13;;;;;;;13.25;10.02;;;30.20;99.90;;;;;;5004094;28;20423;-58
2022/05/20 06:10:39;;;;;;;13.15;9.35;;;30.60;99.90;;;;;;4998801;28;20911;-58
2022/05/20 06:13:04;;;;;;;12.45;9.77;;;31.00;99.90;;;;;;4992554;28;20382;-54
2022/05/20 06:15:30;;;;;;;13.30;9.00;;;31.30;99.90;;;;;;4993248;28;20390;-58
2022/05/20 06:17:56;;;;;;;16.45;9.90;;;31.40;99.90;;;;;;4993186;28;20756;-58
2022/05/20 06:20:23;;;;;;;13.60;9.43;;;32.00;99.90;;;;;;4992278;28;20375;-61
2022/05/20 06:22:50;;;;;;;13.00;10.00;;;32.40;99.90;;;;;;4993169;28;20386;-58
2022/05/20 06:25:16;;;;;;;13.40;10.98;;;32.60;99.90;;;;;;4992181;28;20518;-58
2022/05/20 06:27:42;;;;;;;12.47;10.17;;;33.00;99.90;;;;;;4993115;28;20383;-58
2022/05/20 06:30:11;;;;;;;15.15;9.48;;;33.90;99.90;;;;;;4991715;28;20470;-59
2022/05/20 06:32:36;;;;;;;13.48;6.90;;;34.70;99.90;;;;;;4992784;28;20445;-58
2022/05/20 06:40:44;;;;;;;10.48;4.70;;;34.40;99.90;;;;;;4992724;28;20397;-58
2022/05/20 06:43:18;;;;;;;10.50;5.30;;;34.80;99.90;;;;;;4992021;28;20395;-59
2022/05/20 06:45:45;;;;;;;10.43;4.93;;;34.80;99.90;;;;;;4992724;28;20479;-58
2022/05/20 06:48:12;;;;;;;9.67;5.10;;;34.30;99.90;;;;;;4991894;28;20426;-57
2022/05/20 06:50:39;;;;;;;8.67;5.30;;;34.30;99.90;;;;;;4992215;28;20907;-58
2022/05/20 06:53:06;;;;;;;9.32;4.40;;;34.90;99.90;;;;;;4991883;28;20741;-55
2022/05/20 06:55:31;;;;;;;9.63;4.80;;;35.80;99.90;;;;;;4992264;28;20418;-58
2022/05/20 06:57:58;;;;;;;11.00;5.10;;;36.00;99.90;;;;;;4992188;28;20853;-58
2022/05/20 07:00:24;;;;;;;12.53;4.67;;;36.00;99.90;;;;;;4991348;28;20410;-58
2022/05/20 07:02:49;;;;;;;11.67;5.57;;;36.10;99.90;;;;;;4992257;28;20418;-59
2022/05/20 07:05:15;;;;;;;13.10;8.32;;;36.40;99.90;;;;;;4991494;28;20957;-59
2022/05/20 07:07:41;;;;;;;11.00;7.00;;;36.70;99.90;;;;;;4991849;28;20386;-58
2022/05/20 07:10:10;;;;;;;11.23;6.77;;;37.20;99.90;;;;;;4990919;28;20425;-59
2022/05/20 07:12:35;;;;;;;11.33;6.67;;;37.30;99.90;;;;;;4991708;28;20382;-59
2022/05/20 07:15:01;;;;;;;12.30;6.77;;;37.30;99.90;;;;;;4992058;28;20387;-58
2022/05/20 07:17:27;;;;;;;12.40;6.10;;;37.10;99.90;;;;;;4991126;28;20487;-59
2022/05/20 07:19:53;;;;;;;11.75;6.07;;;37.60;99.90;;;;;;4991855;28;20386;-59
2022/05/20 07:22:19;;;;;;;10.00;6.15;;;37.60;99.90;;;;;;4991408;28;20387;-60
2022/05/20 07:24:45;;;;;;;12.38;5.97;;;37.70;99.90;;;;;;4991908;28;20386;-60
2022/05/20 07:27:11;;;;;;;14.30;6.10;;;38.50;99.90;;;;;;4991171;28;20394;-58
2022/05/20 07:29:38;;;;;;;11.90;6.60;;;38.30;99.90;;;;;;4992022;28;20382;-60
2022/05/20 07:32:04;;;;;;;12.45;7.00;;;38.80;99.90;;;;;;4991416;28;20402;-57
2022/05/20 07:34:30;;;;;;;12.02;6.55;;;38.20;99.90;;;;;;4991393;28;20522;-60
2022/05/20 07:36:55;;;;;;;12.67;6.60;;;38.50;99.90;;;;;;4991379;28;20498;-61
2022/05/20 07:39:21;;;;;;;10.43;7.00;;;39.00;99.90;;;;;;4990536;28;20493;-61
2022/05/20 07:41:47;;;;;;;14.35;6.30;;;39.20;99.90;;;;;;4991613;28;20391;-59
2022/05/20 07:44:13;;;;;;;11.60;6.20;;;39.40;99.90;;;;;;4990379;28;20379;-60
2022/05/20 07:46:39;;;;;;;10.40;5.50;;;38.80;99.90;;;;;;4991483;28;20392;-61
2022/05/20 07:49:05;;;;;;;12.10;5.97;;;38.70;99.90;;;;;;4990938;28;20383;-57
2022/05/20 07:51:31;;;;;;;11.70;5.57;;;39.30;99.90;;;;;;4991139;28;20398;-61
2022/05/20 07:54:05;;;;;;;12.32;6.38;;;39.00;99.90;;;;;;4991510;28;20383;-60
2022/05/20 07:56:35;;;;;;;9.93;6.25;;;39.10;99.90;;;;;;4991108;28;20460;-60
2022/05/20 07:59:19;;;;;;;10.18;8.60;;;38.40;99.90;;;;;;4991759;28;20477;-58
2022/05/20 08:01:48;;;;;;;11.45;9.65;;;37.10;99.90;;;;;;4991341;28;20469;-57
2022/05/20 08:07:07;;;;;;;10.35;9.20;;;36.70;99.90;;;;;;4990384;28;20472;-54
2022/05/20 08:09:33;;;;;;;11.35;9.30;;;37.60;99.90;;;;;;4990918;28;20406;-60
2022/05/20 08:11:59;;;;;;;15.90;13.40;;;38.20;99.90;;;;;;4973554;28;20402;-57
2022/05/20 08:14:26;;;;;;;9.15;7.03;;;37.00;99.90;;;;;;4990260;28;20390;-58
2022/05/20 08:16:52;;;;;;;10.80;7.32;;;37.40;99.90;;;;;;4990655;28;20465;-58
2022/05/20 08:19:19;;;;;;;12.37;11.07;;;37.20;99.90;;;;;;4990410;28;20860;-58
2022/05/20 08:21:44;;;;;;;12.90;11.50;;;36.20;99.90;;;;;;4991020;28;20411;-58
2022/05/20 08:24:10;;;;;;;12.30;8.97;;;36.00;99.90;;;;;;4989635;28;20935;-58
2022/05/20 08:26:36;;;;;;;13.02;9.15;;;35.80;99.90;;;;;;4991146;28;20398;-57
2022/05/20 08:29:03;;;;;;;11.82;9.10;;;35.70;99.90;;;;;;4990798;28;20383;-58
2022/05/20 08:31:29;;;;;;;12.55;9.38;;;35.70;99.90;;;;;;4990091;28;20387;-58
2022/05/20 08:33:55;;;;;;;12.13;9.30;;;35.70;99.90;;;;;;4990763;28;20437;-58
2022/05/20 08:36:21;;;;;;;14.82;9.52;;;36.50;99.90;;;;;;4990037;28;20391;-58
2022/05/20 08:38:47;;;;;;;12.48;9.95;;;36.10;99.90;;;;;;4990181;28;20426;-58
2022/05/20 08:41:25;;;;;;;12.50;9.18;;;36.20;99.90;;;;;;4989648;28;20886;-57
2022/05/20 08:43:51;;;;;;;10.57;9.48;;;36.10;99.90;;;;;;4973762;28;20378;-58
2022/05/20 08:46:19;;;;;;;12.75;9.90;;;36.00;99.90;;;;;;4989610;28;20473;-58
2022/05/20 08:48:48;;;;;;;10.90;9.80;;;36.00;99.90;;;;;;4990188;28;20876;-58
2022/05/20 08:51:14;;;;;;;14.90;9.50;;;36.70;99.90;;;;;;4989440;28;20375;-58
2022/05/20 08:53:44;;;;;;;12.33;10.70;;;36.40;99.90;;;;;;4989821;28;20436;-58
2022/05/20 08:56:13;;;;;;;12.00;9.02;;;36.40;99.90;;;;;;4989511;28;20383;-58
2022/05/20 08:58:53;;;;;;;13.20;9.17;;;36.90;99.90;;;;;;4990524;28;20528;-58
2022/05/20 09:01:27;;;;;;;10.70;9.18;;;37.70;99.90;;;;;;4989382;28;20799;-58
2022/05/20 09:03:53;;;;;;;9.85;8.63;;;37.70;99.90;;;;;;4990292;28;20383;-58
2022/05/20 09:06:18;;;;;;;12.48;9.48;;;36.70;99.90;;;;;;4989427;28;20397;-58
2022/05/20 09:09:11;;;;;;;12.35;8.50;;;36.80;99.90;;;;;;4990444;28;20399;-58
2022/05/20 09:11:38;;;;;;;12.30;8.98;;;37.10;99.90;;;;;;4990180;28;20753;-58
2022/05/20 09:17:18;;;;;;;11.68;8.95;;;36.60;99.90;;;;;;4989849;28;20409;-58
2022/05/20 09:20:14;;;;;;;11.40;8.68;;;36.90;99.90;;;;;;4990119;28;20390;-58
2022/05/20 09:22:41;;;;;;;9.98;8.02;;;37.90;99.90;;;;;;4988693;28;20402;-58
2022/05/20 09:25:22;;;;;;;10.20;8.00;;;37.60;99.90;;;;;;4989966;28;20927;-55
2022/05/20 09:27:50;;;;;;;11.75;8.30;;;38.00;99.90;;;;;;4988857;28;20437;-58
2022/05/20 09:30:23;;;;;;;11.88;8.07;;;38.10;99.90;;;;;;4989456;28;20382;-59
2022/05/20 09:33:20;;;;;;;10.70;7.90;;;38.90;99.90;;;;;;4990005;28;20433;-58
2022/05/20 09:35:54;;;;;;;9.90;7.65;;;37.80;99.90;;;;;;4972792;28;20440;-58
2022/05/20 09:38:34;;;;;;;11.65;7.90;;;37.40;99.90;;;;;;4989227;28;20490;-59
2022/05/20 09:41:16;;;;;;;11.00;8.10;;;37.80;99.90;;;;;;4989762;28;20406;-58
2022/05/20 09:43:50;;;;;;;9.52;7.60;;;37.40;99.90;;;;;;4989801;28;20403;-58
2022/05/20 09:46:50;;;;;;;12.65;8.70;;;37.00;99.90;;;;;;4989156;28;20892;-57
2022/05/20 09:49:26;;;;;;;12.43;9.35;;;36.10;99.90;;;;;;4989075;28;20413;-58
2022/05/20 09:52:00;;;;;;;10.13;8.77;;;36.40;99.90;;;;;;4989930;28;20449;-58
2022/05/20 09:54:32;;;;;;;12.88;8.40;;;36.00;99.90;;;;;;4988566;28;20658;-58
2022/05/20 09:57:03;;;;;;;12.80;8.60;;;36.40;99.90;;;;;;4989897;28;20414;-58
2022/05/20 09:59:43;;;;;;;10.17;8.73;;;36.20;99.90;;;;;;4988862;28;20383;-59
2022/05/20 10:02:27;;;;;;;11.85;8.40;;;36.80;99.90;;;;;;4988877;28;20387;-55
2022/05/20 10:05:20;;;;;;;12.77;8.38;;;37.40;99.90;;;;;;4989575;28;20402;-59
2022/05/20 10:07:57;;;;;;;11.30;8.82;;;36.70;99.90;;;;;;4993623;28;20390;-60
2022/05/20 10:10:58;;;;;;;11.73;9.70;;;37.40;99.90;;;;;;4992858;28;20879;-59
2022/05/20 10:13:30;;;;;;;11.07;9.98;;;37.90;99.90;;;;;;4992114;28;20387;-60
2022/05/20 10:16:22;;;;;;;10.57;8.82;;;37.90;99.90;;;;;;4992853;28;20487;-59
2022/05/20 10:19:11;;;;;;;12.45;8.70;;;38.50;99.90;;;;;;4993184;28;20808;-60
2022/05/20 10:21:54;;;;;;;11.18;8.35;;;38.50;99.90;;;;;;4993449;28;20385;-59
2022/05/20 10:24:42;;;;;;;15.60;8.68;;;38.80;99.90;;;;;;4992397;28;20382;-60
2022/05/20 10:27:45;;;;;;;11.32;8.43;;;38.80;99.90;;;;;;4992634;28;20474;-56
2022/05/20 10:33:10;;;;;;;14.48;8.20;;;38.70;99.90;;;;;;4992950;28;20386;-59
2022/05/20 10:35:52;;;;;;;11.65;8.10;;;37.80;99.90;;;;;;4992646;28;20426;-59
2022/05/20 10:38:44;;;;;;;10.82;9.52;;;37.00;99.90;;;;;;4991901;28;20466;-61
2022/05/20 10:41:47;;;;;;;12.60;10.07;;;36.20;99.90;;;;;;4974042;28;20414;-59
2022/05/20 10:50:28;;;;;;;12.13;10.27;;;35.30;99.90;;;;;;4989941;28;20496;-57
2022/05/20 10:53:19;;;;;;;12.23;9.30;;;35.50;99.90;;;;;;4991016;28;20412;-60
2022/05/20 10:55:59;;;;;;;13.30;9.15;;;35.60;99.90;;;;;;4991784;28;20414;-60
2022/05/20 10:59:02;;;;;;;10.50;8.10;;;35.10;99.90;;;;;;4990502;28;20410;-60
2022/05/20 11:01:40;;;;;;;12.13;7.63;;;35.00;99.90;;;;;;4984283;28;21055;-61
2022/05/20 11:04:24;;;;;;;13.35;7.75;;;34.30;99.90;;;;;;4991795;28;20406;-61
2022/05/20 11:07:13;;;;;;;13.32;8.93;;;34.40;99.90;;;;;;4989998;28;20409;-60
2022/05/20 11:09:45;;;;;;;13.80;8.23;;;34.90;99.90;;;;;;4986947;28;20434;-61
2022/05/20 11:12:42;;;;;;;12.00;8.23;;;34.80;99.90;;;;;;4988127;28;20468;-58
2022/05/20 11:15:49;;;;;;;11.85;8.55;;;34.10;99.90;;;;;;4990826;28;20899;-55
2022/05/20 11:18:42;;;;;;;11.63;8.43;;;34.30;99.90;;;;;;4989495;28;20410;-59
2022/05/20 11:21:41;;;;;;;12.73;8.18;;;34.60;99.90;;;;;;4988791;28;20398;-59
2022/05/20 11:24:31;;;;;;;11.48;8.65;;;34.50;99.90;;;;;;4988786;28;20382;-56
2022/05/20 11:27:05;;;;;;;11.98;8.20;;;33.90;99.90;;;;;;4989562;28;20437;-60
2022/05/20 11:29:46;;;;;;;12.15;7.90;;;33.80;99.90;;;;;;4988915;28;20390;-60
2022/05/20 11:32:19;;;;;;;12.27;8.60;;;33.80;99.90;;;;;;4988513;28;20391;-59
2022/05/20 11:35:14;;;;;;;15.10;8.20;;;33.70;99.90;;;;;;4988766;28;20390;-60
2022/05/20 11:38:03;;;;;;;10.73;9.30;;;34.00;99.90;;;;;;4990337;28;20417;-60
2022/05/20 11:40:47;;;;;;;11.32;9.45;;;33.90;99.90;;;;;;4989917;28;20374;-60
2022/05/20 11:43:40;;;;;;;12.70;9.25;;;33.80;99.90;;;;;;4988848;28;20441;-60
2022/05/20 11:46:30;;;;;;;12.20;8.38;;;34.10;99.90;;;;;;4988402;28;20447;-55
2022/05/20 11:49:06;;;;;;;10.63;8.15;;;34.40;99.90;;;;;;4989503;28;20753;-60
2022/05/20 11:51:57;;;;;;;11.87;7.20;;;34.70;99.90;;;;;;4985037;28;20465;-61
2022/05/20 11:54:46;;;;;;;11.63;8.27;;;34.80;99.90;;;;;;4972104;28;20410;-59
2022/05/20 11:57:17;;;;;;;12.13;8.10;;;34.80;99.90;;;;;;4989421;28;20431;-61
2022/05/20 11:59:46;;;;;;;13.80;8.00;;;34.90;99.90;;;;;;4989715;28;20398;-61
2022/05/20 12:02:14;;;;;;;16.30;7.82;;;35.00;99.90;;;;;;4989129;28;20457;-60
2022/05/20 12:04:41;;;;;;;12.90;8.77;;;35.30;99.90;;;;;;4989069;28;20864;-59
2022/05/20 12:07:23;;;;;;;11.38;8.60;;;35.30;99.90;;;;;;4990102;28;20416;-56
2022/05/20 12:09:54;;;;;;;15.70;8.30;;;35.20;99.90;;;;;;4989812;28;20423;-60
2022/05/20 12:12:33;;;;;;;13.40;8.40;;;35.10;99.90;;;;;;4988558;28;20398;-61
2022/05/20 12:14:59;;;;;;;11.40;8.03;;;34.80;99.90;;;;;;4987838;28;20866;-60
2022/05/20 12:17:40;;;;;;;12.23;7.67;;;34.70;99.90;;;;;;4989452;28;20545;-59
2022/05/20 12:26:10;;;;;;;17.05;8.23;;;33.80;99.90;;;;;;4987864;28;20385;-60
2022/05/20 12:28:39;;;;;;;10.00;7.87;;;34.10;99.90;;;;;;4987022;28;20860;-61
2022/05/20 12:31:12;;;;;;;13.25;7.55;;;34.40;99.90;;;;;;4986994;28;20433;-60
2022/05/20 12:33:53;;;;;;;11.27;8.30;;;34.30;99.90;;;;;;4989841;28;20415;-61
2022/05/20 12:36:33;;;;;;;10.20;7.70;;;34.10;99.90;;;;;;4988009;28;20402;-61
2022/05/20 12:39:08;;;;;;;13.10;8.23;;;34.00;99.90;;;;;;4989415;28;20496;-59
2022/05/20 12:41:48;;;;;;;10.52;7.90;;;33.60;99.90;;;;;;4987037;28;20489;-60
2022/05/20 12:44:16;;;;;;;11.70;8.57;;;33.40;99.90;;;;;;4987703;28;20799;-60
2022/05/20 12:47:19;;;;;;;13.30;8.97;;;33.40;99.90;;;;;;4989325;28;20520;-61
2022/05/20 12:49:48;;;;;;;12.10;7.90;;;33.60;99.90;;;;;;4988973;28;20421;-56
2022/05/20 12:52:45;;;;;;;16.17;8.70;;;33.80;99.90;;;;;;4988823;28;20444;-69
2022/05/20 12:55:20;;;;;;;12.33;8.40;;;33.80;99.90;;;;;;4987913;28;20386;-61
2022/05/20 12:57:54;;;;;;;10.43;7.80;;;33.90;99.90;;;;;;4987231;28;20469;-64
2022/05/20 13:00:32;;;;;;;12.05;7.50;;;34.00;99.90;;;;;;4988130;28;20398;-69
2022/05/20 13:03:19;;;;;;;11.23;7.55;;;33.80;99.90;;;;;;4988928;28;20856;-68
2022/05/20 13:05:58;;;;;;;11.10;8.18;;;33.80;99.90;;;;;;4987127;28;20474;-69
2022/05/20 13:08:50;;;;;;;11.30;7.57;;;34.00;99.90;;;;;;4986657;28;20406;-69
2022/05/20 13:11:20;;;;;;;12.77;6.88;;;34.10;99.90;;;;;;4929549;28;20567;-68
2022/05/20 13:13:56;;;;;;;13.52;7.78;;;34.20;99.90;;;;;;4969785;28;20723;-69
2022/05/20 13:16:23;;;;;;;9.93;6.65;;;34.40;99.90;;;;;;4966830;28;20396;-69
2022/05/20 13:19:01;;;;;;;12.15;8.02;;;34.20;99.90;;;;;;4970573;28;20433;-69
2022/05/20 13:21:28;;;;;;;10.98;7.80;;;34.10;99.90;;;;;;4969789;28;20479;-61
2022/05/20 13:23:54;;;;;;;10.57;6.53;;;34.10;99.90;;;;;;4961761;28;20489;-62
2022/05/20 13:26:23;;;;;;;13.07;6.85;;;34.10;99.90;;;;;;4988634;28;20915;-62
2022/05/20 13:28:49;;;;;;;15.70;6.82;;;33.90;99.90;;;;;;4950351;28;20412;-62
2022/05/20 13:31:26;;;;;;;10.80;6.78;;;33.90;99.90;;;;;;4969467;28;20430;-62
2022/05/20 13:33:52;;;;;;;11.23;6.40;;;33.60;99.90;;;;;;4989090;28;20739;-62
2022/05/20 13:36:22;;;;;;;12.13;6.70;;;33.60;99.90;;;;;;4988739;28;20391;-63
2022/05/20 13:38:58;;;;;;;15.20;7.03;;;33.80;99.90;;;;;;4988890;28;20737;-63
2022/05/20 13:41:28;;;;;;;15.40;6.43;;;33.90;99.90;;;;;;4976822;28;20528;-62